Time;durP1;ratioP1;P1;durP2;ratioP2;P2;SDS_P1;SDS_P2;PMS_P1;PMS_P2;Temp;Humidity;BMP_temperature;BMP_pressure;BME280_temperature;BME280_humidity;BME280_pressure;Samples;Min_cycle;Max_cycle;Signal;HPM_P1;HPM_P2
2021/01/10 00:00:18;;;;;;;33.27;23.70;;;;;;;1.82;66.42;100461.59;1719232;82;21229;-92
2021/01/10 00:02:47;;;;;;;33.23;24.20;;;;;;;1.83;66.56;100463.23;1705139;82;21164;-92
2021/01/10 00:05:28;;;;;;;33.63;24.17;;;;;;;1.77;66.64;100458.51;1714289;81;21137;-94
2021/01/10 00:07:58;;;;;;;34.50;24.97;;;;;;;1.70;66.86;100468.22;1677730;83;21346;-90
2021/01/10 00:10:37;;;;;;;37.27;26.67;;;;;;;1.69;67.00;100468.34;1648904;84;21200;-93
2021/01/10 00:13:10;;;;;;;40.60;31.70;;;;;;;1.74;67.07;100472.75;1679927;83;21267;-93
2021/01/10 00:15:55;;;;;;;32.83;23.73;;;;;;;1.71;67.06;100481.73;1680454;81;21623;-92
2021/01/10 00:18:27;;;;;;;35.60;25.53;;;;;;;1.74;66.97;100482.77;1685009;85;21177;-92
2021/01/10 00:21:08;;;;;;;33.17;24.07;;;;;;;1.72;66.99;100484.70;1663905;84;21557;-93
2021/01/10 00:27:48;;;;;;;30.13;21.40;;;;;;;1.71;66.95;100484.81;1678277;83;21268;-94
2021/01/10 00:31:09;;;;;;;40.43;27.13;;;;;;;1.76;66.92;100490.53;1680653;83;21191;-94
2021/01/10 00:34:36;;;;;;;53.55;35.20;;;;;;;1.77;66.68;100482.16;1687888;83;21338;-93
2021/01/10 00:37:25;;;;;;;42.27;28.53;;;;;;;1.73;66.65;100488.15;1707347;80;21169;-94
2021/01/10 00:40:54;;;;;;;39.80;25.67;;;;;;;1.70;66.67;100477.42;1688819;80;22757;31
2021/01/10 00:44:28;;;;;;;31.97;22.20;;;;;;;1.72;66.64;100480.75;1650581;85;21181;-91
2021/01/10 00:47:29;;;;;;;30.08;20.70;;;;;;;1.64;66.84;100475.31;1659851;85;21157;-91
2021/01/10 00:50:47;;;;;;;32.13;22.03;;;;;;;1.69;66.86;100474.42;1648060;85;21208;-93
2021/01/10 00:53:57;;;;;;;28.33;21.03;;;;;;;1.70;66.95;100480.05;1649927;84;21737;-96
2021/01/10 00:56:42;;;;;;;35.97;24.70;;;;;;;1.75;66.68;100480.97;1664140;85;21170;-94
2021/01/10 00:59:55;;;;;;;32.07;22.17;;;;;;;1.77;66.61;100481.67;1637175;86;21160;-92
2021/01/10 01:02:27;;;;;;;36.60;24.37;;;;;;;1.76;66.61;100481.33;1677339;84;21652;-93
2021/01/10 01:11:53;;;;;;;35.13;24.77;;;;;;;1.79;66.34;100490.75;1645174;85;21162;-92
2021/01/10 01:15:09;;;;;;;30.53;20.97;;;;;;;1.72;66.46;100493.89;1642632;86;21309;-95
2021/01/10 01:18:13;;;;;;;32.47;20.97;;;;;;;1.75;66.49;100488.39;1631166;85;21330;-90
2021/01/10 01:21:33;;;;;;;33.67;23.17;;;;;;;1.69;66.51;100484.94;1660899;81;21426;-89
2021/01/10 01:30:23;;;;;;;34.23;22.43;;;;;;;1.65;66.95;100480.91;1659963;84;21171;-93
2021/01/10 01:33:15;;;;;;;39.13;26.30;;;;;;;1.71;66.91;100472.99;1652717;83;21171;-92
2021/01/10 01:35:46;;;;;;;39.07;24.97;;;;;;;1.68;66.75;100474.09;1666320;84;21163;-92
2021/01/10 01:38:48;;;;;;;32.73;24.47;;;;;;;1.69;66.67;100478.37;1707186;81;21147;-92
2021/01/10 01:45:07;;;;;;;31.13;22.80;;;;;;;1.71;66.59;100478.25;1704249;82;21301;-93
2021/01/10 01:47:50;;;;;;;34.27;23.07;;;;;;;1.74;66.63;100484.08;1709219;82;21081;-93
2021/01/10 02:00:53;;;;;;;33.50;23.57;;;;;;;1.66;66.76;100483.08;1708937;84;21143;-91
2021/01/10 02:03:47;;;;;;;34.93;23.73;;;;;;;1.64;66.80;100484.51;1670058;84;21190;-91
2021/01/10 02:06:22;;;;;;;33.97;24.80;;;;;;;1.68;66.84;100493.80;1633042;86;21153;-93
2021/01/10 02:09:45;;;;;;;41.03;25.83;;;;;;;1.82;66.75;100483.44;1803924;78;23133;-92
2021/01/10 02:12:17;;;;;;;34.47;24.37;;;;;;;1.80;66.63;100491.11;1761523;80;21159;-93
2021/01/10 02:15:21;;;;;;;35.50;24.43;;;;;;;1.85;66.39;100491.08;1779210;80;21160;-92
2021/01/10 02:28:45;;;;;;;33.93;23.93;;;;;;;1.82;66.24;100504.47;1717809;79;21166;-96
2021/01/10 02:35:53;;;;;;;37.15;26.17;;;;;;;1.64;66.88;100497.64;1661299;83;21208;-95
2021/01/10 02:39:30;;;;;;;37.43;25.03;;;;;;;1.62;66.93;100498.26;1670287;82;21374;-95
2021/01/10 02:42:40;;;;;;;37.03;25.13;;;;;;;1.63;66.92;100493.34;1691870;82;21465;-92
2021/01/10 02:45:17;;;;;;;36.37;24.17;;;;;;;1.62;67.06;100500.88;1700596;83;21226;-93
2021/01/10 02:47:53;;;;;;;39.17;27.73;;;;;;;1.71;67.04;100494.87;1856623;75;25149;-91
2021/01/10 02:50:34;;;;;;;38.37;24.80;;;;;;;1.68;67.05;100498.23;1828055;77;21251;-92
2021/01/10 02:53:08;;;;;;;36.60;26.07;;;;;;;1.74;67.03;100489.34;1830323;76;21093;-91
2021/01/10 02:56:12;;;;;;;37.58;23.95;;;;;;;1.74;66.93;100495.91;1831639;76;21127;-92
2021/01/10 02:58:42;;;;;;;40.43;25.93;;;;;;;1.76;67.00;100493.16;1787414;79;21139;-93
2021/01/10 03:01:17;;;;;;;37.57;25.50;;;;;;;1.77;66.98;100486.10;1826153;78;21266;-93
2021/01/10 03:04:05;;;;;;;37.20;24.97;;;;;;;1.80;67.04;100493.25;1784730;78;21152;-93
2021/01/10 03:06:55;;;;;;;41.83;27.80;;;;;;;1.78;66.98;100486.47;1791117;78;21185;-94
2021/01/10 03:09:43;;;;;;;37.20;25.33;;;;;;;1.77;67.04;100488.73;1782223;79;21116;-90
2021/01/10 03:12:25;;;;;;;35.00;24.27;;;;;;;1.55;67.15;100460.30;1760356;80;21144;-91
2021/01/10 03:15:01;;;;;;;39.47;27.00;;;;;;;1.78;66.98;100494.36;1738902;81;21226;-93
2021/01/10 03:17:44;;;;;;;39.37;25.37;;;;;;;1.74;67.09;100491.97;1738439;83;21179;-95
2021/01/10 03:26:39;;;;;;;33.37;22.53;;;;;;;1.82;67.15;100492.64;1732824;81;21222;-94
2021/01/10 03:29:10;;;;;;;36.90;24.50;;;;;;;1.80;67.13;100502.94;1685438;82;21190;-89
2021/01/10 03:32:03;;;;;;;36.68;25.70;;;;;;;1.82;67.16;100501.02;1698884;80;21156;-92
2021/01/10 03:34:35;;;;;;;36.70;25.30;;;;;;;1.81;67.26;100496.25;1723737;78;21149;-93
2021/01/10 03:37:09;;;;;;;40.10;24.37;;;;;;;1.83;67.25;100493.01;1702624;81;21172;-92
2021/01/10 03:39:51;;;;;;;41.33;27.70;;;;;;;1.74;67.40;100493.28;1685639;82;21166;-92
2021/01/10 03:42:25;;;;;;;35.23;24.10;;;;;;;1.87;67.31;100502.30;1706575;82;21205;-89
2021/01/10 03:44:55;;;;;;;39.60;28.57;;;;;;;1.87;67.28;100497.53;1687016;82;21098;-92
2021/01/10 03:47:26;;;;;;;35.30;24.37;;;;;;;1.90;67.18;100497.26;1707296;82;21172;-94
2021/01/10 03:50:03;;;;;;;36.00;24.70;;;;;;;1.88;67.27;100492.61;1709929;82;21134;-90
2021/01/10 03:52:51;;;;;;;41.47;27.80;;;;;;;1.91;67.26;100495.00;1763728;80;21252;-91
2021/01/10 03:55:28;;;;;;;40.50;26.27;;;;;;;1.89;67.14;100498.23;1746912;80;21165;-92
2021/01/10 04:21:54;;;;;;;39.23;25.90;;;;;;;1.96;67.33;100505.97;1641246;83;21364;-93
2021/01/10 04:47:35;;;;;;;36.97;25.40;;;;;;;1.62;67.31;100478.55;1697759;81;21184;-95
2021/01/10 04:50:09;;;;;;;37.63;26.00;;;;;;;1.99;67.24;100541.67;1673220;83;21753;-93
2021/01/10 04:52:38;;;;;;;40.00;26.47;;;;;;;1.96;67.22;100545.41;1642569;86;21387;-94
2021/01/10 04:55:13;;;;;;;38.70;27.30;;;;;;;1.99;67.15;100541.19;1662212;84;21320;-93
2021/01/10 05:10:39;;;;;;;36.03;23.60;;;;;;;2.00;67.33;100553.38;1676213;84;21259;-96
2021/01/10 05:13:53;;;;;;;40.33;25.33;;;;;;;2.00;67.20;100558.64;1708877;84;21199;-96
2021/01/10 05:16:39;;;;;;;33.67;24.67;;;;;;;1.92;67.47;100565.00;1735296;79;21189;-95
2021/01/10 05:19:08;;;;;;;33.30;22.07;;;;;;;1.96;67.68;100570.38;1768450;79;21185;-89
2021/01/10 05:21:41;;;;;;;38.37;24.60;;;;;;;1.95;67.55;100566.89;1767334;80;21177;-90
2021/01/10 05:24:15;;;;;;;38.13;25.13;;;;;;;1.95;67.40;100570.84;1763772;78;21157;-90
2021/01/10 05:45:49;;;;;;;34.43;24.10;;;;;;;1.99;67.56;100580.63;1754540;80;21195;-90
2021/01/10 05:48:17;;;;;;;29.57;20.17;;;;;;;1.97;67.66;100589.12;1748152;80;21171;-88
2021/01/10 05:50:48;;;;;;;34.50;20.80;;;;;;;2.00;67.55;100593.28;1742463;79;21218;-88
2021/01/10 05:53:24;;;;;;;34.47;23.20;;;;;;;1.98;67.56;100593.89;1763233;79;21128;-89
2021/01/10 05:56:01;;;;;;;36.77;23.20;;;;;;;1.97;67.61;100594.87;1750464;79;21213;-93
2021/01/10 06:08:51;;;;;;;;;;;;;;;;;;;;;
2021/01/10 06:21:54;;;;;;;39.47;25.03;;;;;;;1.97;67.72;100616.72;1746114;80;21184;-90
2021/01/10 06:24:24;;;;;;;35.03;23.47;;;;;;;1.95;67.61;100611.59;1694132;81;21109;-93
2021/01/10 06:27:15;;;;;;;39.13;24.83;;;;;;;1.94;67.64;100628.80;1673354;83;21267;-93
2021/01/10 06:30:23;;;;;;;;;;;;;;;;;;;;;
2021/01/10 06:33:13;;;;;;;35.60;22.20;;;;;;;1.95;67.79;100629.98;1626320;85;21180;-93
2021/01/10 06:36:07;;;;;;;34.25;22.52;;;;;;;1.95;67.79;100636.56;1679397;82;21217;-94
2021/01/10 06:39:10;;;;;;;36.57;24.50;;;;;;;1.94;67.85;100628.34;1656012;82;21118;-94
2021/01/10 06:42:06;;;;;;;35.20;23.30;;;;;;;1.99;67.81;100636.32;1675317;85;21372;-94
2021/01/10 06:55:36;;;;;;;34.67;24.00;;;;;;;1.91;67.79;100658.81;1682152;79;21704;-92
2021/01/10 06:58:09;;;;;;;35.97;25.43;;;;;;;1.92;67.70;100657.00;1585358;88;21323;-90
2021/01/10 07:01:04;;;;;;;37.70;23.93;;;;;;;1.89;67.77;100667.30;1617552;88;21250;-93
2021/01/10 07:04:08;;;;;;;34.20;23.20;;;;;;;1.90;67.73;100658.92;1612625;88;21197;-95
2021/01/10 07:07:06;;;;;;;38.83;25.83;;;;;;;1.94;67.67;100664.28;1612410;84;21257;-94
2021/01/10 07:13:24;;;;;;;39.83;26.87;;;;;;;1.97;67.73;100667.17;1697071;79;21168;-91
2021/01/10 07:16:17;;;;;;;41.13;26.50;;;;;;;1.97;67.55;100673.25;1679538;82;21333;-90
2021/01/10 07:18:52;;;;;;;35.53;26.57;;;;;;;2.02;67.59;100676.35;1661713;86;21199;-90
2021/01/10 07:21:48;;;;;;;44.48;28.12;;;;;;;2.04;67.53;100681.49;1664796;85;21195;-92
2021/01/10 07:24:23;;;;;;;37.50;25.77;;;;;;;2.07;67.26;100683.39;1656650;85;21184;-89
2021/01/10 07:27:00;;;;;;;40.37;26.97;;;;;;;2.05;66.99;100687.91;1659859;85;21319;-89
2021/01/10 07:29:35;;;;;;;36.80;24.07;;;;;;;2.04;67.03;100692.83;1660679;84;21199;-86
2021/01/10 07:32:12;;;;;;;31.27;23.03;;;;;;;2.18;66.89;100688.24;1659525;85;21305;-87
2021/01/10 07:34:52;;;;;;;30.40;22.22;;;;;;;2.23;66.59;100696.60;1659204;86;21218;-88
2021/01/10 07:37:28;;;;;;;33.83;22.93;;;;;;;2.18;66.64;100696.13;1605902;84;21264;-92
2021/01/10 07:40:02;;;;;;;36.77;25.20;;;;;;;2.17;66.63;100689.19;1573532;89;21843;-89
2021/01/10 07:42:36;;;;;;;32.90;23.37;;;;;;;2.17;66.59;100690.05;1599461;88;21257;-87
2021/01/10 07:45:20;;;;;;;29.90;21.37;;;;;;;2.17;66.50;100689.19;1565114;90;21132;-90
2021/01/10 07:47:53;;;;;;;32.57;21.77;;;;;;;2.13;66.46;100696.03;1599876;87;21202;-90
2021/01/10 07:51:19;;;;;;;34.97;23.00;;;;;;;2.18;66.61;100689.56;1792714;78;23165;-92
2021/01/10 07:53:51;;;;;;;33.57;23.40;;;;;;;2.14;66.64;100696.86;1712065;81;21204;-90
2021/01/10 07:56:23;;;;;;;37.67;24.90;;;;;;;2.18;66.61;100700.08;1677783;84;21243;-90
2021/01/10 07:59:17;;;;;;;38.07;25.17;;;;;;;2.25;66.54;100688.10;1747944;80;25158;-89
2021/01/10 08:01:52;;;;;;;35.20;24.00;;;;;;;2.23;66.43;100701.86;1766139;80;21347;-89
2021/01/10 08:04:33;;;;;;;31.60;21.30;;;;;;;2.22;66.48;100701.49;1759231;81;21171;-91
2021/01/10 08:07:03;;;;;;;31.07;21.60;;;;;;;2.24;66.64;100700.88;1698236;82;21253;-89
2021/01/10 08:09:34;;;;;;;34.77;23.67;;;;;;;2.25;66.58;100706.03;1687847;83;21354;-88
2021/01/10 08:12:02;;;;;;;29.33;18.67;;;;;;;2.31;66.53;100712.58;1704811;83;21557;-91
2021/01/10 08:14:32;;;;;;;35.67;23.47;;;;;;;2.32;66.19;100702.42;1675675;84;21199;-89
2021/01/10 08:17:01;;;;;;;36.30;23.20;;;;;;;2.36;66.04;100709.10;1710023;83;21273;-89
2021/01/10 08:19:29;;;;;;;33.00;22.33;;;;;;;2.38;65.94;100705.86;1689553;80;21335;-89
2021/01/10 08:22:00;;;;;;;30.67;21.63;;;;;;;2.40;65.99;100709.69;1707665;80;21272;-90
2021/01/10 08:24:37;;;;;;;30.10;20.63;;;;;;;2.44;65.83;100704.03;1679414;84;21207;-90
2021/01/10 08:27:05;;;;;;;31.07;20.50;;;;;;;2.52;65.67;100707.34;1679420;81;21148;-90
2021/01/10 08:29:34;;;;;;;33.77;23.27;;;;;;;2.53;65.55;100712.48;1688093;82;21167;-89
2021/01/10 08:32:01;;;;;;;31.20;21.43;;;;;;;2.55;65.33;100708.42;1710825;80;21225;-89
2021/01/10 08:34:29;;;;;;;27.37;19.70;;;;;;;2.56;64.97;100711.87;1698034;81;21145;-88
2021/01/10 08:36:57;;;;;;;27.23;19.93;;;;;;;2.50;65.19;100707.95;1707450;81;21063;-90
2021/01/10 08:39:25;;;;;;;29.70;20.03;;;;;;;2.49;65.14;100711.08;1695471;82;21251;-91
2021/01/10 08:41:52;;;;;;;32.97;22.57;;;;;;;2.47;65.26;100709.05;1687734;82;21166;-91
2021/01/10 08:44:25;;;;;;;33.70;22.23;;;;;;;2.48;65.42;100708.08;1690800;83;21166;-92
2021/01/10 08:46:54;;;;;;;34.03;21.67;;;;;;;2.49;65.44;100711.56;1697739;83;21304;-89
2021/01/10 08:49:25;;;;;;;30.73;21.63;;;;;;;2.44;65.62;100713.73;1672072;83;21290;-89
2021/01/10 08:52:09;;;;;;;33.10;20.70;;;;;;;2.46;65.76;100724.96;1695918;83;21339;-90
2021/01/10 08:54:44;;;;;;;34.48;23.32;;;;;;;2.48;65.87;100711.20;1682672;82;21317;-90
2021/01/10 08:57:14;;;;;;;31.80;21.93;;;;;;;2.51;65.88;100707.83;1668776;83;21156;-91
2021/01/10 08:59:45;;;;;;;28.37;20.10;;;;;;;2.54;65.62;100714.63;1669536;83;21322;-91
2021/01/10 09:02:15;;;;;;;33.70;21.47;;;;;;;2.56;64.82;100707.92;1693180;83;21203;-90
2021/01/10 09:04:45;;;;;;;27.07;18.23;;;;;;;2.50;65.03;100709.27;1695993;83;21357;-90
2021/01/10 09:07:20;;;;;;;28.63;20.30;;;;;;;2.52;65.08;100706.89;1688073;83;21227;-91
2021/01/10 09:09:59;;;;;;;30.50;20.83;;;;;;;2.53;64.93;100705.91;1692032;84;21200;-93
2021/01/10 09:12:47;;;;;;;29.53;20.10;;;;;;;2.57;65.01;100708.30;1687955;84;21204;-90
2021/01/10 09:15:22;;;;;;;31.43;20.23;;;;;;;2.60;64.77;100702.30;1692608;83;21346;-89
2021/01/10 09:18:01;;;;;;;32.93;22.30;;;;;;;2.63;64.75;100701.20;1692008;83;21299;-91
2021/01/10 09:20:33;;;;;;;30.30;21.43;;;;;;;2.65;64.67;100700.09;1704470;83;21171;-91
2021/01/10 09:23:09;;;;;;;28.73;21.07;;;;;;;2.68;64.49;100705.12;1691569;83;21213;-91
2021/01/10 09:25:38;;;;;;;26.63;19.30;;;;;;;2.70;64.28;100697.09;1656207;84;21216;-93
2021/01/10 09:28:18;;;;;;;27.03;18.93;;;;;;;2.71;64.08;100701.37;1647834;86;21416;-92
2021/01/10 09:30:55;;;;;;;32.37;18.97;;;;;;;2.73;63.97;100700.77;1638625;86;21382;-92
2021/01/10 09:33:55;;;;;;;31.37;21.00;;;;;;;2.75;64.05;100701.96;1627005;86;21191;-92
2021/01/10 09:36:23;;;;;;;27.00;19.17;;;;;;;2.79;63.96;100694.16;1648289;86;21137;-91
2021/01/10 09:39:08;;;;;;;27.97;19.20;;;;;;;2.82;63.96;100698.68;1652759;86;21287;-91
2021/01/10 09:41:54;;;;;;;27.83;18.63;;;;;;;2.86;63.72;100698.80;1656555;86;21193;-93
2021/01/10 09:44:38;;;;;;;27.63;20.20;;;;;;;2.87;63.58;100700.94;1654714;86;21208;-92
2021/01/10 09:47:40;;;;;;;32.63;20.27;;;;;;;2.88;63.65;100695.55;1627076;86;21215;-92
2021/01/10 09:50:20;;;;;;;30.10;20.62;;;;;;;2.87;63.33;100699.62;1643706;86;21440;-91
2021/01/10 09:52:52;;;;;;;30.53;20.83;;;;;;;2.80;63.14;100706.37;1620493;87;21254;-89
2021/01/10 09:56:08;;;;;;;30.10;21.57;;;;;;;2.75;63.53;100693.61;1785458;77;22907;-90
2021/01/10 09:58:56;;;;;;;29.10;19.87;;;;;;;2.70;63.30;100697.09;1709776;81;21187;-92
2021/01/10 10:01:40;;;;;;;25.07;16.80;;;;;;;2.72;63.58;100702.57;1682407;83;21287;-90
2021/01/10 10:04:33;;;;;;;26.73;19.37;;;;;;;2.81;63.59;100699.66;1662270;83;21290;-92
2021/01/10 10:07:05;;;;;;;25.07;17.33;;;;;;;2.87;63.13;100695.19;1597900;86;21166;-91
2021/01/10 10:09:54;;;;;;;27.33;19.40;;;;;;;2.90;62.88;100698.89;1564554;85;21212;-90
2021/01/10 10:13:08;;;;;;;23.80;15.93;;;;;;;2.93;62.66;100701.73;1533049;90;21280;-92
2021/01/10 10:16:25;;;;;;;25.13;16.53;;;;;;;2.95;62.64;100695.02;1544691;90;21225;-91
2021/01/10 10:19:11;;;;;;;28.30;18.53;;;;;;;2.96;62.23;100682.20;1835586;76;23399;-91
2021/01/10 10:25:23;;;;;;;26.47;17.80;;;;;;;2.95;61.82;100690.59;1818114;78;24321;-92
2021/01/10 10:28:22;;;;;;;28.73;19.00;;;;;;;2.92;61.99;100693.01;1761283;80;21141;-93
2021/01/10 10:31:32;;;;;;;24.70;18.52;;;;;;;2.90;62.03;100693.63;1726173;79;21189;-90
2021/01/10 10:34:22;;;;;;;25.37;17.37;;;;;;;2.93;61.66;100688.08;1703337;81;21189;-94
2021/01/10 10:37:17;;;;;;;;;;;;;;;;;;;;;
2021/01/10 10:50:25;;;;;;;24.30;15.07;;;;;;;2.92;61.41;100694.81;1761114;79;22974;-92
2021/01/10 10:52:56;;;;;;;23.07;14.83;;;;;;;2.84;61.49;100694.61;1744702;80;21332;-92
2021/01/10 10:55:39;;;;;;;25.10;15.43;;;;;;;2.68;61.45;100643.75;1772517;79;22729;-92
2021/01/10 10:58:41;;;;;;;21.30;15.90;;;;;;;2.95;61.10;100695.02;1738737;81;21152;-92
2021/01/10 11:02:01;;;;;;;22.03;15.03;;;;;;;2.94;61.14;100691.56;1680771;83;21320;-88
2021/01/10 11:04:38;;;;;;;22.77;15.27;;;;;;;2.95;61.12;100684.50;1692895;84;21177;-90
2021/01/10 11:07:08;;;;;;;20.37;14.35;;;;;;;2.96;60.90;100684.37;1668812;84;21289;-90
2021/01/10 11:09:45;;;;;;;21.60;14.63;;;;;;;2.97;60.75;100685.20;1675067;84;21973;-91
2021/01/10 11:12:46;;;;;;;23.80;16.53;;;;;;;2.96;60.70;100680.87;1684191;83;21786;-89
2021/01/10 11:15:21;;;;;;;27.43;17.10;;;;;;;2.95;60.95;100689.76;1713092;82;21198;-87
2021/01/10 11:18:00;;;;;;;23.97;16.70;;;;;;;2.96;61.12;100699.31;1658523;85;21378;-93
2021/01/10 11:20:50;;;;;;;23.13;16.20;;;;;;;2.96;61.12;100688.32;1709068;83;21152;-89
2021/01/10 11:23:19;;;;;;;21.53;14.27;;;;;;;2.95;61.29;100691.08;1704419;83;21132;-93
2021/01/10 11:25:48;;;;;;;23.37;15.07;;;;;;;2.94;60.94;100690.25;1714791;82;22027;-93
2021/01/10 11:28:19;;;;;;;21.70;14.97;;;;;;;2.91;60.96;100692.64;1712085;82;21203;-91
2021/01/10 11:32:34;;;;;;;26.20;18.80;;;;;;;2.95;60.77;100693.71;1851778;75;23095;-90
2021/01/10 11:35:05;;;;;;;21.13;15.27;;;;;;;2.91;60.72;100695.77;1851919;76;21148;-87
2021/01/10 11:37:40;;;;;;;24.33;16.60;;;;;;;2.90;60.84;100694.94;1787243;79;21132;-89
2021/01/10 11:40:16;;;;;;;21.77;16.13;;;;;;;2.45;60.74;100628.55;1797823;78;21116;-90
2021/01/10 11:42:48;;;;;;;26.87;16.17;;;;;;;2.88;60.68;100697.33;1767583;79;21657;-90
2021/01/10 11:45:20;;;;;;;22.53;14.93;;;;;;;2.87;60.99;100703.58;1773310;80;21574;-91
2021/01/10 11:47:48;;;;;;;23.43;15.40;;;;;;;2.89;60.94;100694.58;1758724;80;21825;-91
2021/01/10 11:50:17;;;;;;;25.27;17.57;;;;;;;2.90;60.98;100704.16;1734365;82;21271;-91
2021/01/10 11:52:52;;;;;;;23.47;17.80;;;;;;;2.91;61.08;100697.91;1724510;82;21111;-91
2021/01/10 11:55:22;;;;;;;21.40;15.67;;;;;;;2.92;60.88;100702.23;1733170;81;21185;-91
2021/01/10 11:57:49;;;;;;;23.67;17.23;;;;;;;2.93;60.95;100714.41;1732003;82;21185;-91
2021/01/10 12:00:18;;;;;;;23.37;17.70;;;;;;;2.91;60.90;100711.08;1737103;82;21185;-92
2021/01/10 12:02:45;;;;;;;25.83;19.63;;;;;;;2.88;60.91;100709.18;1745167;81;21196;-92
2021/01/10 12:05:16;;;;;;;30.50;20.60;;;;;;;2.89;60.87;100712.18;1715609;82;21184;-90
2021/01/10 12:08:06;;;;;;;24.47;16.20;;;;;;;2.85;60.81;100707.65;1736603;80;21169;-91
2021/01/10 12:10:36;;;;;;;25.90;17.70;;;;;;;2.81;61.16;100708.05;1829287;77;21140;-92
2021/01/10 12:13:05;;;;;;;23.60;16.67;;;;;;;2.79;61.25;100715.22;1808530;78;21156;-91
2021/01/10 12:15:34;;;;;;;25.67;17.67;;;;;;;2.77;61.16;100713.20;1770602;78;21267;-92
2021/01/10 12:18:06;;;;;;;26.70;16.53;;;;;;;2.75;61.36;100717.30;1809725;78;21181;-91
2021/01/10 12:20:44;;;;;;;20.07;15.63;;;;;;;2.76;61.72;100720.27;1786744;78;21152;-91
2021/01/10 12:23:51;;;;;;;23.90;17.60;;;;;;;2.80;61.60;100720.36;1808601;77;23017;-93
2021/01/10 12:26:19;;;;;;;19.10;14.80;;;;;;;2.78;61.65;100726.23;1752209;78;21192;-94
2021/01/10 12:29:12;;;;;;;24.27;16.77;;;;;;;2.78;61.92;100722.28;1731442;80;21706;-95
2021/01/10 12:32:06;;;;;;;23.07;17.10;;;;;;;2.78;61.85;100719.66;1720436;80;21128;-94
2021/01/10 12:34:50;;;;;;;23.77;16.10;;;;;;;2.82;61.81;100726.81;1725544;79;21184;-93
2021/01/10 12:37:28;;;;;;;27.73;18.60;;;;;;;2.78;61.92;100730.19;1701988;80;21109;-91
2021/01/10 12:40:20;;;;;;;25.53;17.13;;;;;;;2.77;62.01;100727.21;1708991;82;21114;-91
2021/01/10 12:43:05;;;;;;;26.20;18.30;;;;;;;2.72;62.25;100738.59;1653895;82;21200;-93
2021/01/10 12:45:48;;;;;;;25.53;17.77;;;;;;;2.67;62.45;100736.33;1704267;81;21191;-90
2021/01/10 12:48:53;;;;;;;25.23;15.87;;;;;;;2.61;62.68;100744.75;1706116;82;21524;-92
2021/01/10 12:51:41;;;;;;;27.27;19.30;;;;;;;2.59;63.07;100753.25;1664379;85;21184;-94
2021/01/10 12:54:18;;;;;;;24.82;18.17;;;;;;;2.58;63.17;100753.38;1651899;84;21192;-92
2021/01/10 12:57:05;;;;;;;27.43;19.27;;;;;;;2.62;63.56;100752.16;1839676;74;22399;-92
2021/01/10 12:59:35;;;;;;;27.10;18.30;;;;;;;2.58;63.74;100756.00;1844476;77;21171;-92
2021/01/10 13:02:09;;;;;;;30.43;19.83;;;;;;;2.61;63.84;100756.59;1826389;77;21119;-94
2021/01/10 13:05:21;;;;;;;26.70;17.20;;;;;;;2.60;63.69;100755.39;1784002;78;21156;-93
2021/01/10 13:08:01;;;;;;;26.17;18.53;;;;;;;2.59;63.89;100757.69;1765040;79;21088;-94
2021/01/10 13:11:13;;;;;;;26.77;19.60;;;;;;;2.58;64.06;100769.16;1749728;79;21270;-95
2021/01/10 13:14:03;;;;;;;29.57;17.97;;;;;;;2.32;64.25;100733.50;1752153;79;21188;-92
2021/01/10 13:16:37;;;;;;;26.10;18.70;;;;;;;2.50;64.52;100766.67;1754227;80;21134;-93
2021/01/10 13:19:10;;;;;;;27.30;19.53;;;;;;;2.53;64.33;100776.13;1745680;81;21139;-93
2021/01/10 13:22:09;;;;;;;22.98;15.58;;;;;;;2.34;64.45;100742.11;1739620;79;21258;-92
2021/01/10 13:25:02;;;;;;;25.07;18.30;;;;;;;2.55;64.35;100772.89;1742064;81;21202;-91
2021/01/10 13:27:39;;;;;;;25.83;18.53;;;;;;;2.53;64.20;100773.02;1728797;82;21180;-92
2021/01/10 13:30:23;;;;;;;24.60;13.90;;;;;;;2.54;63.84;100779.10;1754190;81;21202;-90
2021/01/10 13:33:28;;;;;;;21.77;16.17;;;;;;;2.50;63.75;100773.73;1732752;79;21307;-93
2021/01/10 13:36:00;;;;;;;23.40;16.03;;;;;;;2.49;63.86;100776.03;1762439;79;21101;-92
2021/01/10 13:39:01;;;;;;;22.03;15.20;;;;;;;2.44;63.51;100772.44;1719697;79;21211;-93
2021/01/10 13:52:17;;;;;;;18.40;12.27;;;;;;;2.34;63.66;100774.16;1826676;77;22906;-93
2021/01/10 13:55:06;;;;;;;21.97;13.77;;;;;;;2.33;63.50;100780.38;1799832;77;22735;-93
2021/01/10 13:57:55;;;;;;;;;;;;;;;;;;;;;
2021/01/10 14:00:32;;;;;;;19.57;12.83;;;;;;;2.39;62.80;100783.81;1805794;77;23140;-91
2021/01/10 14:03:23;;;;;;;20.32;12.35;;;;;;;2.34;62.55;100796.04;1774304;80;21874;-92
2021/01/10 14:06:20;;;;;;;14.63;10.13;;;;;;;2.34;62.30;100789.46;1776621;80;21092;-95
2021/01/10 14:08:55;;;;;;;15.93;11.13;;;;;;;2.33;62.33;100792.20;1758451;80;21199;-94
2021/01/10 14:11:34;;;;;;;14.03;10.23;;;;;;;2.32;62.32;100791.88;1755509;80;21235;-91
2021/01/10 14:14:06;;;;;;;17.83;12.50;;;;;;;2.34;62.28;100799.16;1758850;81;21144;-92
2021/01/10 14:27:40;;;;;;;16.43;10.40;;;;;;;2.22;62.52;100802.27;1801859;77;24340;-94
2021/01/10 14:30:49;;;;;;;14.07;9.67;;;;;;;2.13;62.32;100803.03;1741008;80;21108;-93
2021/01/10 14:34:22;;;;;;;15.10;11.13;;;;;;;2.19;62.04;100799.08;1771015;79;21293;-94
2021/01/10 14:37:19;;;;;;;12.90;9.73;;;;;;;2.17;61.83;100799.19;1725679;79;21115;-93
2021/01/10 14:40:11;;;;;;;13.60;9.17;;;;;;;2.17;61.70;100806.23;1710555;82;21156;-91
2021/01/10 14:43:08;;;;;;;10.57;7.97;;;;;;;2.17;61.60;100807.54;1730488;81;21161;-93
2021/01/10 14:46:14;;;;;;;12.70;7.77;;;;;;;2.17;61.63;100804.91;1802771;77;23131;-92
2021/01/10 14:49:25;;;;;;;12.13;9.03;;;;;;;2.14;61.50;100814.72;1757735;80;21236;-92
2021/01/10 14:52:32;;;;;;;13.43;8.70;;;;;;;2.11;61.68;100820.24;1749477;81;21716;-92
2021/01/10 14:55:19;;;;;;;9.50;7.37;;;;;;;2.10;61.73;100817.24;1742288;80;22350;-93
2021/01/10 14:57:57;;;;;;;12.73;8.40;;;;;;;2.09;61.63;100816.05;1732069;80;21722;-93
2021/01/10 15:01:22;;;;;;;10.67;7.57;;;;;;;2.10;61.59;100820.36;1723076;81;21125;-94
2021/01/10 15:04:17;;;;;;;8.67;7.47;;;;;;;2.07;61.56;100818.81;1741831;81;21291;-93
2021/01/10 15:07:14;;;;;;;7.73;6.17;;;;;;;2.10;61.58;100822.98;1682345;82;21143;-88
2021/01/10 15:09:58;;;;;;;9.13;6.63;;;;;;;2.09;61.56;100825.25;1685853;83;21204;-94
2021/01/10 15:12:46;;;;;;;7.43;6.20;;;;;;;2.10;61.14;100831.70;1700117;82;21204;-94
2021/01/10 15:15:46;;;;;;;12.03;7.20;;;;;;;2.05;61.10;100822.50;1667099;83;21208;-91
2021/01/10 15:18:20;;;;;;;10.60;7.80;;;;;;;2.05;61.29;100833.85;1691222;83;21132;-91
2021/01/10 15:21:06;;;;;;;11.63;7.37;;;;;;;2.02;61.34;100835.43;1684468;83;21166;-92
2021/01/10 15:23:36;;;;;;;7.20;6.00;;;;;;;2.04;61.40;100834.83;1672761;83;21209;-93
2021/01/10 15:26:12;;;;;;;10.47;6.73;;;;;;;2.02;61.59;100834.11;1682276;82;21208;-93
2021/01/10 15:29:01;;;;;;;9.20;6.20;;;;;;;2.00;61.40;100841.29;1682636;82;21192;-93
2021/01/10 15:32:25;;;;;;;10.07;7.43;;;;;;;1.99;61.36;100839.60;1801288;78;27147;-91
2021/01/10 15:35:12;;;;;;;11.27;8.33;;;;;;;1.91;61.45;100846.78;1747730;80;21141;-93
2021/01/10 15:37:39;;;;;;;9.60;7.57;;;;;;;1.88;61.71;100848.81;1705443;80;21326;-90
2021/01/10 15:40:18;;;;;;;9.33;7.70;;;;;;;1.88;61.77;100848.81;1697145;80;21105;-91
2021/01/10 15:42:50;;;;;;;10.90;8.40;;;;;;;1.88;61.86;100851.44;1690580;83;21187;-90
2021/01/10 15:45:31;;;;;;;13.07;9.67;;;;;;;1.83;61.83;100851.81;1690549;84;21325;-89
2021/01/10 15:48:07;;;;;;;13.97;10.30;;;;;;;1.82;61.85;100855.86;1685819;83;21370;-90
2021/01/10 15:50:37;;;;;;;12.13;9.93;;;;;;;1.79;62.08;100854.77;1661555;83;21295;-94
2021/01/10 15:53:15;;;;;;;14.47;10.50;;;;;;;1.78;62.06;100855.27;1689007;83;21383;-92
2021/01/10 15:55:57;;;;;;;11.57;8.83;;;;;;;1.73;62.37;100860.89;1651579;84;21217;-93
2021/01/10 15:58:42;;;;;;;11.63;8.73;;;;;;;1.73;62.42;100863.97;1674081;83;21294;-94
2021/01/10 16:01:15;;;;;;;10.80;8.77;;;;;;;1.72;62.49;100863.14;1678297;83;21303;-92
2021/01/10 16:03:47;;;;;;;16.10;9.73;;;;;;;1.69;62.71;100866.48;1689145;83;21149;-92